Time;durP1;ratioP1;P1;durP2;ratioP2;P2;SDS_P1;SDS_P2;PMS_P1;PMS_P2;Temp;Humidity;BMP_temperature;BMP_pressure;BME280_temperature;BME280_humidity;BME280_pressure;Samples;Min_cycle;Max_cycle;Signal;HPM_P1;HPM_P2
2021/11/28 00:00:50;;;;;;;52.78;38.05;;;;;;;8.10;69.06;99294.75;5000855;28;20498;-72
2021/11/28 00:03:18;;;;;;;54.38;42.90;;;;;;;8.21;69.29;99318.16;5001869;28;20049;-71
2021/11/28 00:05:50;;;;;;;60.50;39.88;;;;;;;8.11;69.25;99337.41;5001744;28;20053;-71
2021/11/28 00:15:53;;;;;;;62.80;46.00;;;;;;;7.38;71.12;99322.19;4998878;28;20053;-71
2021/11/28 00:18:19;;;;;;;59.55;43.83;;;;;;;7.31;71.87;99322.22;5001404;28;20121;-71
2021/11/28 00:20:45;;;;;;;45.72;36.83;;;;;;;7.17;72.38;99309.25;4999996;28;20141;-69
2021/11/28 00:23:10;;;;;;;57.65;39.03;;;;;;;7.60;71.62;99333.38;4998755;28;20050;-69
2021/11/28 00:25:36;;;;;;;58.70;36.63;;;;;;;7.23;71.89;99288.31;4997628;28;20817;-70
2021/11/28 00:28:02;;;;;;;51.88;40.47;;;;;;;7.60;70.81;99282.91;5000130;28;20053;-72
2021/11/28 00:30:28;;;;;;;52.55;39.65;;;;;;;7.48;71.65;99304.72;4997294;28;20033;-71
2021/11/28 00:32:58;;;;;;;49.95;38.40;;;;;;;7.29;72.82;99319.63;4999372;28;20044;-71
2021/11/28 00:35:23;;;;;;;49.22;38.20;;;;;;;7.28;72.87;99306.56;4995075;28;20509;-71
2021/11/28 00:37:49;;;;;;;46.33;37.05;;;;;;;6.91;73.80;99310.19;5002013;28;20129;-71
2021/11/28 00:42:37;;;;;;;42.13;34.75;;;;;;;7.50;71.74;99307.34;5055959;28;20644;-70
2021/11/28 00:45:05;;;;;;;41.45;31.60;;;;;;;8.55;68.71;99329.22;5038136;28;20601;-71
2021/11/28 00:47:30;;;;;;;41.60;34.45;;;;;;;9.09;65.84;99295.53;5054729;28;20106;-69
2021/11/28 00:52:27;;;;;;;49.95;36.08;;;;;;;8.23;68.39;99314.66;5053086;28;20049;-71
2021/11/28 00:54:53;;;;;;;47.28;36.08;;;;;;;8.47;68.04;99322.34;5053403;28;20110;-70
2021/11/28 00:57:18;;;;;;;45.80;36.58;;;;;;;8.34;67.69;99304.13;5058420;28;20028;-71
2021/11/28 00:59:44;;;;;;;40.70;31.10;;;;;;;8.32;68.86;99307.63;5054501;28;20123;-70
2021/11/28 01:02:09;;;;;;;39.38;33.17;;;;;;;9.24;66.13;99312.78;5055053;28;20048;-69
2021/11/28 01:04:36;;;;;;;39.83;32.38;;;;;;;9.81;63.69;99312.03;5060384;28;20114;-69
2021/11/28 01:07:02;;;;;;;41.58;35.10;;;;;;;10.20;62.22;99303.56;5056278;28;20052;-69
2021/11/28 01:09:27;;;;;;;43.22;33.42;;;;;;;10.34;61.20;99281.47;5051710;28;20048;-70
2021/11/28 01:11:53;;;;;;;41.65;33.15;;;;;;;10.32;60.78;99277.16;5055339;28;20136;-71
2021/11/28 01:14:18;;;;;;;41.55;34.03;;;;;;;10.48;60.43;99304.84;5059351;28;20060;-71
2021/11/28 01:16:44;;;;;;;42.42;33.17;;;;;;;10.45;61.07;99319.78;5054861;28;20079;-70
2021/11/28 01:19:10;;;;;;;42.33;31.77;;;;;;;10.52;60.65;99316.16;5053195;28;20140;-71
2021/11/28 01:21:37;;;;;;;54.60;34.90;;;;;;;8.80;65.24;99318.50;5061140;28;20155;-70
2021/11/28 01:24:03;;;;;;;36.08;29.30;;;;;;;8.19;67.87;99289.47;5056982;28;20020;-68
2021/11/28 01:26:31;;;;;;;41.83;33.03;;;;;;;7.88;69.49;99306.22;5053418;28;20044;-70
2021/11/28 01:28:57;;;;;;;44.20;35.13;;;;;;;8.33;68.16;99323.28;5056541;28;20048;-71
2021/11/28 01:31:23;;;;;;;42.45;34.70;;;;;;;7.61;69.68;99301.19;5052803;28;20051;-70
2021/11/28 01:33:50;;;;;;;44.50;33.08;;;;;;;7.90;69.03;99310.56;5060528;28;20041;-70
2021/11/28 01:36:16;;;;;;;46.50;33.33;;;;;;;8.33;68.46;99306.75;5054649;28;20510;-70
2021/11/28 01:38:42;;;;;;;43.25;34.42;;;;;;;8.35;67.21;99276.22;5058734;28;20059;-69
2021/11/28 01:41:08;;;;;;;45.40;32.92;;;;;;;8.14;68.10;99309.50;5053269;28;20049;-69
2021/11/28 01:43:34;;;;;;;42.88;35.97;;;;;;;7.99;68.11;99291.34;5055007;28;20048;-70
2021/11/28 01:45:59;;;;;;;52.85;34.83;;;;;;;7.47;70.17;99292.56;5051783;28;20045;-70
2021/11/28 01:48:25;;;;;;;45.67;35.60;;;;;;;7.74;69.10;99275.84;5055688;28;20483;-70
2021/11/28 01:50:52;;;;;;;47.75;35.92;;;;;;;7.84;68.90;99284.47;5057541;28;20044;-68
2021/11/28 01:53:24;;;;;;;47.08;35.08;;;;;;;7.80;68.96;99293.25;5043497;28;20076;-72
2021/11/28 01:55:50;;;;;;;45.13;35.10;;;;;;;6.80;72.14;99287.63;5041603;28;20053;-71
2021/11/28 01:58:16;;;;;;;43.05;34.00;;;;;;;6.50;73.84;99281.63;5049847;28;20144;-70
2021/11/28 02:00:52;;;;;;;41.30;33.40;;;;;;;6.42;74.34;99276.44;5040097;28;20107;-71
2021/11/28 02:03:18;;;;;;;47.35;34.25;;;;;;;6.50;73.99;99259.03;5045525;28;20041;-70
2021/11/28 02:05:51;;;;;;;42.53;33.92;;;;;;;6.24;74.01;99227.81;5041310;28;20046;-70
2021/11/28 02:08:17;;;;;;;41.33;35.73;;;;;;;6.42;74.88;99278.16;5037247;28;20045;-70
2021/11/28 02:10:43;;;;;;;46.45;38.72;;;;;;;6.62;74.29;99281.59;5043688;28;20120;-70
2021/11/28 02:13:10;;;;;;;44.35;33.70;;;;;;;6.52;74.88;99278.13;5039676;28;20052;-70
2021/11/28 02:15:35;;;;;;;38.67;32.13;;;;;;;6.11;75.94;99236.50;5041125;28;20029;-70
2021/11/28 02:18:01;;;;;;;37.58;33.72;;;;;;;6.42;75.43;99268.63;5043980;28;20048;-70
2021/11/28 02:20:30;;;;;;;40.92;32.08;;;;;;;6.61;74.52;99263.38;5042590;28;20065;-71
2021/11/28 02:22:56;;;;;;;40.28;32.05;;;;;;;6.23;75.68;99266.91;5044409;28;20034;-69
2021/11/28 02:25:25;;;;;;;43.15;37.03;;;;;;;6.01;76.37;99259.09;5053739;28;20049;-70
2021/11/28 02:27:51;;;;;;;38.05;31.48;;;;;;;6.02;76.44;99250.44;5039704;28;20056;-71
2021/11/28 02:32:33;;;;;;;38.00;33.03;;;;;;;6.24;75.78;99255.59;5002603;27;20648;-70
2021/11/28 02:34:59;;;;;;;45.58;33.38;;;;;;;6.11;75.06;99223.50;5000407;28;20042;-70
2021/11/28 02:37:24;;;;;;;38.65;30.70;;;;;;;6.89;72.84;99205.03;4998725;28;20050;-72
2021/11/28 02:39:52;;;;;;;49.72;32.45;;;;;;;8.14;69.15;99248.56;4997130;28;20727;-71
2021/11/28 02:42:19;;;;;;;43.47;33.78;;;;;;;6.73;71.62;99247.69;5000626;28;20048;-71
2021/11/28 02:44:45;;;;;;;42.17;31.65;;;;;;;6.23;74.38;99246.94;4995234;28;20050;-71
2021/11/28 02:47:11;;;;;;;38.53;32.88;;;;;;;5.99;75.38;99247.81;4989960;28;20050;-70
2021/11/28 02:49:36;;;;;;;38.42;29.63;;;;;;;6.66;72.76;99205.13;4993917;28;20054;-71
2021/11/28 02:52:02;;;;;;;46.42;33.13;;;;;;;6.72;71.77;99199.03;4992542;28;20047;-71
2021/11/28 02:54:28;;;;;;;38.20;31.63;;;;;;;6.66;71.91;99205.13;4999240;28;20333;-70
2021/11/28 02:56:54;;;;;;;43.92;32.97;;;;;;;7.47;70.58;99247.31;4996129;28;20426;-71
2021/11/28 02:59:19;;;;;;;38.75;33.00;;;;;;;7.69;68.86;99243.69;4994810;28;20777;-70
2021/11/28 03:01:45;;;;;;;48.25;31.58;;;;;;;8.02;67.75;99244.31;4998676;28;20092;-70
2021/11/28 03:04:11;;;;;;;40.38;31.05;;;;;;;7.50;67.96;99218.59;4996160;28;20129;-70
2021/11/28 03:06:37;;;;;;;37.95;30.42;;;;;;;6.94;70.34;99237.16;4999154;28;20486;-71
2021/11/28 03:09:04;;;;;;;39.42;30.42;;;;;;;6.20;72.50;99204.38;4994930;28;20477;-71
2021/11/28 03:11:30;;;;;;;39.60;30.75;;;;;;;6.29;73.34;99244.28;4994820;28;20284;-70
2021/11/28 03:13:55;;;;;;;39.90;31.60;;;;;;;6.12;73.95;99213.06;4995543;28;20490;-72
2021/11/28 03:16:24;;;;;;;42.03;30.92;;;;;;;6.20;74.40;99236.50;4996362;28;20565;-71
2021/11/28 03:18:51;;;;;;;36.55;30.15;;;;;;;6.16;74.51;99241.72;4992644;28;20053;-71
2021/11/28 03:21:20;;;;;;;38.88;29.10;;;;;;;5.97;75.25;99233.94;4996884;28;20056;-71
2021/11/28 03:23:48;;;;;;;40.17;29.48;;;;;;;5.63;76.60;99241.69;4999802;28;20061;-71
2021/11/28 03:26:23;;;;;;;36.47;28.15;;;;;;;5.91;76.04;99233.91;4998786;28;20112;-71
2021/11/28 03:28:51;;;;;;;37.85;27.58;;;;;;;6.27;74.55;99247.78;4991320;28;20057;-70
2021/11/28 03:31:17;;;;;;;42.00;30.70;;;;;;;6.40;73.76;99246.03;4998554;28;20065;-71
2021/11/28 03:33:43;;;;;;;40.60;31.25;;;;;;;6.20;73.79;99226.06;5011347;28;20063;-70
2021/11/28 03:36:10;;;;;;;39.58;30.42;;;;;;;5.95;74.10;99182.72;4998637;28;20069;-71
2021/11/28 03:38:39;;;;;;;43.00;30.17;;;;;;;5.87;74.96;99224.34;4998466;28;20128;-70
2021/11/28 03:41:06;;;;;;;37.60;31.85;;;;;;;5.27;76.08;99167.97;4996189;28;20069;-71
2021/11/28 03:43:31;;;;;;;32.55;28.98;;;;;;;5.48;76.39;99169.72;4987783;28;20078;-70
2021/11/28 03:45:57;;;;;;;43.80;32.20;;;;;;;5.65;75.78;99169.69;4984962;28;20158;-71
2021/11/28 03:48:22;;;;;;;44.13;31.38;;;;;;;5.68;76.66;99200.91;4988248;28;20054;-72
2021/11/28 03:50:48;;;;;;;36.17;29.42;;;;;;;5.57;77.63;99196.59;4983307;28;20784;-71
2021/11/28 03:53:13;;;;;;;41.65;29.55;;;;;;;5.50;77.49;99194.00;4980786;28;20046;-72
2021/11/28 03:55:39;;;;;;;40.50;30.45;;;;;;;5.42;77.80;99195.72;4986497;28;20494;-70
2021/11/28 03:58:06;;;;;;;42.97;30.55;;;;;;;5.44;77.72;99190.50;4980654;28;20133;-71
2021/11/28 04:00:32;;;;;;;42.00;29.13;;;;;;;5.29;77.88;99186.16;4985749;28;20515;-71
2021/11/28 04:02:58;;;;;;;37.20;28.70;;;;;;;5.33;77.76;99185.28;4983472;28;20035;-71
2021/11/28 04:05:24;;;;;;;37.53;29.42;;;;;;;5.23;77.79;99165.34;4982283;28;20047;-72
2021/11/28 04:07:50;;;;;;;41.90;29.27;;;;;;;5.35;77.73;99193.09;4982956;28;20516;-70
2021/11/28 04:10:15;;;;;;;35.92;30.33;;;;;;;5.07;77.98;99175.72;4982767;28;20050;-71
2021/11/28 04:12:41;;;;;;;34.47;27.10;;;;;;;4.84;78.70;99165.25;4988023;28;20367;-71
2021/11/28 04:15:07;;;;;;;36.35;28.13;;;;;;;5.22;78.54;99207.81;4985708;28;20494;-70
2021/11/28 04:17:33;;;;;;;39.00;28.25;;;;;;;6.16;76.03;99206.16;4987015;28;20050;-70
2021/11/28 04:19:59;;;;;;;37.63;29.30;;;;;;;6.49;73.26;99207.78;4987533;28;20828;-71
2021/11/28 04:22:25;;;;;;;32.20;26.40;;;;;;;5.96;75.00;99218.31;4984016;28;20070;-70
2021/11/28 04:24:51;;;;;;;38.67;28.83;;;;;;;5.26;76.94;99184.41;4983533;28;20047;-71
2021/11/28 04:27:16;;;;;;;37.13;29.27;;;;;;;5.21;78.19;99221.69;4983422;28;20508;-71
2021/11/28 04:29:42;;;;;;;35.70;28.33;;;;;;;4.95;78.93;99174.84;4982608;28;20056;-71
2021/11/28 04:32:08;;;;;;;35.00;27.35;;;;;;;5.13;78.36;99161.88;4979335;28;20054;-71
2021/11/28 04:34:33;;;;;;;41.35;31.45;;;;;;;5.11;78.49;99158.41;4981438;28;20061;-71
2021/11/28 04:38:39;;;;;;;34.35;26.13;;;;;;;5.66;78.23;99227.81;4984517;28;20654;-72
2021/11/28 04:41:04;;;;;;;31.63;25.75;;;;;;;6.57;75.70;99238.19;4966902;28;20051;-70
2021/11/28 04:43:30;;;;;;;31.73;24.92;;;;;;;7.35;72.25;99236.09;4962859;28;20133;-71
2021/11/28 04:45:55;;;;;;;33.03;27.83;;;;;;;7.80;68.96;99207.91;4963625;28;20055;-71
2021/11/28 04:48:21;;;;;;;32.30;25.98;;;;;;;7.52;70.53;99242.94;4965948;28;20042;-71
2021/11/28 04:50:46;;;;;;;34.97;26.02;;;;;;;7.49;70.35;99240.34;4979712;28;20047;-71
2021/11/28 04:53:11;;;;;;;34.10;26.95;;;;;;;8.15;68.16;99242.47;4971114;28;20562;-71
2021/11/28 04:55:37;;;;;;;32.00;23.50;;;;;;;8.53;65.94;99229.03;4963851;28;20054;-71
2021/11/28 04:58:03;;;;;;;44.00;28.25;;;;;;;8.79;64.45;99225.25;4968073;28;20074;-71
2021/11/28 05:00:29;;;;;;;33.13;23.52;;;;;;;8.64;65.93;99236.78;4965487;28;20041;-72
2021/11/28 05:02:56;;;;;;;31.58;24.85;;;;;;;7.30;70.70;99216.09;4961780;28;20419;-70
2021/11/28 05:05:23;;;;;;;44.45;24.20;;;;;;;6.64;73.57;99211.22;4980740;28;20061;-71
2021/11/28 05:07:48;;;;;;;28.88;22.67;;;;;;;6.30;74.66;99193.09;4971441;28;20039;-70
2021/11/28 05:10:14;;;;;;;28.60;22.67;;;;;;;6.08;75.66;99182.69;4970850;28;20055;-71
2021/11/28 05:12:40;;;;;;;31.05;25.40;;;;;;;6.51;74.96;99193.03;4960620;28;20046;-72
2021/11/28 05:15:06;;;;;;;32.53;25.83;;;;;;;6.40;74.84;99231.25;4964647;28;20114;-70
2021/11/28 05:17:32;;;;;;;39.90;23.48;;;;;;;6.91;73.20;99205.03;4964549;28;20063;-72
2021/11/28 05:19:58;;;;;;;35.30;28.52;;;;;;;6.29;74.99;99214.78;4964744;28;20427;-70
2021/11/28 05:22:24;;;;;;;33.47;26.40;;;;;;;6.38;75.03;99214.75;4964122;28;20487;-70
2021/11/28 05:24:50;;;;;;;28.35;24.77;;;;;;;5.82;76.26;99169.69;4963387;28;20051;-71
2021/11/28 05:27:17;;;;;;;28.63;23.27;;;;;;;7.32;72.49;99206.53;4964676;28;20391;-71
2021/11/28 05:29:42;;;;;;;28.83;24.35;;;;;;;8.04;68.62;99185.94;4982837;28;20058;-70
2021/11/28 05:32:08;;;;;;;33.25;25.10;;;;;;;8.61;67.19;99236.78;4969066;28;20101;-72
2021/11/28 05:34:33;;;;;;;33.00;25.08;;;;;;;8.84;65.90;99221.69;4960340;28;20046;-72
2021/11/28 05:36:59;;;;;;;29.13;24.15;;;;;;;7.90;68.19;99241.81;4960673;28;20063;-70
2021/11/28 05:40:39;;;;;;;33.80;25.60;;;;;;;7.28;69.83;99239.63;5038702;28;20671;-71
2021/11/28 05:43:05;;;;;;;37.03;26.27;;;;;;;6.63;72.08;99256.41;5022995;28;20409;-70
2021/11/28 05:45:31;;;;;;;29.65;24.38;;;;;;;7.05;71.88;99254.53;5018874;28;20037;-69
2021/11/28 05:47:56;;;;;;;35.25;26.10;;;;;;;7.21;69.79;99223.97;5021517;28;20048;-70
2021/11/28 05:50:25;;;;;;;29.77;26.55;;;;;;;7.00;70.42;99230.19;5016668;28;20786;-70
2021/11/28 05:52:51;;;;;;;33.53;26.15;;;;;;;7.64;69.57;99273.34;5020778;28;20050;-70
2021/11/28 05:55:17;;;;;;;32.00;24.83;;;;;;;8.16;66.96;99254.63;5020081;28;20076;-70
2021/11/28 05:57:43;;;;;;;33.85;26.00;;;;;;;8.80;65.06;99282.78;5020359;28;20046;-70
2021/11/28 06:00:11;;;;;;;27.85;24.70;;;;;;;8.97;63.44;99274.75;5022296;28;20149;-71
2021/11/28 06:02:37;;;;;;;41.92;27.10;;;;;;;8.94;63.07;99245.97;5023033;28;20057;-70
2021/11/28 06:05:03;;;;;;;32.33;26.15;;;;;;;9.14;62.77;99282.38;5022671;28;20096;-71
2021/11/28 06:07:30;;;;;;;29.67;25.08;;;;;;;9.02;63.84;99291.25;5017767;28;20577;-69
2021/11/28 06:09:55;;;;;;;34.67;26.70;;;;;;;8.37;65.32;99283.19;5019600;28;20061;-70
2021/11/28 06:12:21;;;;;;;29.25;26.13;;;;;;;7.35;69.36;99288.28;5019323;28;20036;-72
2021/11/28 06:14:46;;;;;;;33.58;27.40;;;;;;;6.55;72.15;99257.31;5022832;28;20077;-71
2021/11/28 06:17:12;;;;;;;37.35;29.65;;;;;;;6.91;72.52;99294.56;5019033;28;20049;-72
2021/11/28 06:19:37;;;;;;;33.20;25.70;;;;;;;7.86;69.67;99300.16;5022148;28;20402;-71
2021/11/28 06:24:40;;;;;;;32.22;25.40;;;;;;;8.92;64.88;99262.59;5031771;28;20639;-70
2021/11/28 06:27:07;;;;;;;34.33;26.17;;;;;;;8.24;67.40;99286.78;4992435;28;20523;-70
2021/11/28 06:29:33;;;;;;;32.95;25.20;;;;;;;7.52;70.19;99264.69;4997688;28;20050;-70
2021/11/28 06:31:58;;;;;;;33.55;27.67;;;;;;;6.90;71.80;99264.13;4995764;28;20521;-71
2021/11/28 06:34:24;;;;;;;31.30;26.38;;;;;;;7.51;71.25;99275.13;4999050;28;20054;-72
2021/11/28 06:36:49;;;;;;;32.95;24.73;;;;;;;8.70;67.58;99304.69;4996536;28;20104;-71
2021/11/28 06:39:15;;;;;;;31.73;24.88;;;;;;;7.95;69.01;99292.25;4996911;28;20031;-70
2021/11/28 06:41:40;;;;;;;32.88;23.63;;;;;;;7.22;71.01;99262.25;4994809;28;20505;-70
2021/11/28 06:44:06;;;;;;;30.08;22.08;;;;;;;7.52;71.03;99269.06;5000906;28;20141;-71
2021/11/28 06:48:39;;;;;;;26.05;21.60;;;;;;;7.72;70.77;99277.59;5095798;27;20641;-70
2021/11/28 06:51:04;;;;;;;32.08;22.48;;;;;;;7.79;70.65;99287.13;5059233;28;20042;-69
2021/11/28 06:53:30;;;;;;;27.92;20.15;;;;;;;7.22;71.61;99270.94;5056743;28;20566;-70
2021/11/28 06:55:55;;;;;;;26.75;19.60;;;;;;;6.91;72.53;99270.22;5071074;28;20044;-72
2021/11/28 06:58:21;;;;;;;24.30;20.25;;;;;;;7.12;71.88;99258.84;5074224;28;20101;-71
2021/11/28 07:00:47;;;;;;;25.30;21.27;;;;;;;7.04;72.72;99271.03;5079482;28;20044;-71
2021/11/28 07:03:13;;;;;;;28.67;21.23;;;;;;;7.16;72.46;99257.91;5077511;28;20031;-71
2021/11/28 07:05:42;;;;;;;26.85;22.20;;;;;;;7.14;72.58;99260.56;5076894;28;20044;-71
2021/11/28 07:08:08;;;;;;;27.30;21.40;;;;;;;7.01;73.25;99263.22;5076337;28;20089;-71
2021/11/28 07:10:33;;;;;;;30.27;22.95;;;;;;;7.01;73.07;99251.03;5074490;28;20052;-71
2021/11/28 07:12:59;;;;;;;26.13;22.50;;;;;;;7.76;70.34;99240.16;5081275;28;20040;-70
2021/11/28 07:15:24;;;;;;;26.30;22.08;;;;;;;7.60;70.31;99257.66;5078448;28;20036;-70
2021/11/28 07:17:50;;;;;;;22.75;19.33;;;;;;;8.15;69.40;99289.50;5072920;28;20097;-72
2021/11/28 07:20:15;;;;;;;26.85;22.00;;;;;;;7.71;70.29;99285.47;5075951;28;20775;-71
2021/11/28 07:22:41;;;;;;;28.92;22.48;;;;;;;7.66;70.93;99290.72;5076764;27;20052;-71
2021/11/28 07:25:07;;;;;;;33.05;23.50;;;;;;;7.40;70.97;99267.38;5078976;28;20495;-70
2021/11/28 07:27:33;;;;;;;54.75;34.80;;;;;;;8.17;69.87;99278.16;5074867;28;20480;-72
2021/11/28 07:30:00;;;;;;;58.47;38.35;;;;;;;8.80;67.52;99276.66;5081911;28;20035;-72
2021/11/28 07:32:26;;;;;;;33.33;25.00;;;;;;;8.98;67.00;99276.47;5060779;28;20061;-71
2021/11/28 07:34:52;;;;;;;34.78;25.23;;;;;;;9.19;65.49;99248.28;5052167;28;20098;-71
2021/11/28 07:37:17;;;;;;;32.75;25.08;;;;;;;9.40;64.87;99266.31;5055362;28;20074;-70
2021/11/28 07:39:42;;;;;;;27.27;21.73;;;;;;;8.92;66.95;99294.88;5057632;28;20369;-70
2021/11/28 07:42:08;;;;;;;30.48;21.95;;;;;;;8.95;66.58;99296.56;5082265;28;20028;-72
2021/11/28 07:44:34;;;;;;;28.95;23.95;;;;;;;8.18;68.79;99290.31;5058587;28;20427;-69
2021/11/28 07:47:00;;;;;;;26.95;22.60;;;;;;;7.91;70.42;99290.53;5053484;28;20052;-71
2021/11/28 07:50:41;;;;;;;30.70;25.65;;;;;;;8.80;68.36;99300.22;5105949;27;20951;-71
2021/11/28 07:53:07;;;;;;;29.85;24.52;;;;;;;9.55;64.53;99261.75;5071755;28;20051;-71
2021/11/28 07:55:32;;;;;;;33.60;24.60;;;;;;;9.91;63.37;99271.69;5079048;28;20522;-71
2021/11/28 07:58:00;;;;;;;33.80;24.58;;;;;;;9.76;64.54;99300.72;5081385;28;20050;-70
2021/11/28 08:00:25;;;;;;;36.05;25.85;;;;;;;8.96;67.04;99309.63;5064963;28;20488;-70
2021/11/28 08:02:51;;;;;;;32.63;25.65;;;;;;;9.34;66.36;99303.09;5083761;28;20045;-70
2021/11/28 08:05:16;;;;;;;33.03;23.33;;;;;;;8.50;69.40;99310.13;5081077;28;20090;-70
2021/11/28 08:07:42;;;;;;;30.52;24.48;;;;;;;9.10;67.51;99285.91;5088591;28;20135;-71
2021/11/28 08:10:08;;;;;;;38.85;27.67;;;;;;;10.03;64.11;99294.22;5079593;28;20449;-70
2021/11/28 08:12:34;;;;;;;32.92;25.80;;;;;;;10.54;62.63;99309.13;5085965;28;20051;-70
2021/11/28 08:14:59;;;;;;;32.00;21.83;;;;;;;10.60;63.25;99337.88;5103059;28;20040;-70
2021/11/28 08:17:25;;;;;;;29.20;23.63;;;;;;;11.29;62.20;99325.22;5083886;28;20090;-71
2021/11/28 08:19:50;;;;;;;26.85;20.08;;;;;;;11.29;61.16;99301.56;5083681;28;20189;-71
2021/11/28 08:24:42;;;;;;;27.45;21.67;;;;;;;11.62;61.08;99347.28;5141562;27;20191;-71
2021/11/28 08:27:08;;;;;;;26.15;21.23;;;;;;;12.26;59.87;99360.75;5118083;27;20126;-67
2021/11/28 08:30:42;;;;;;;30.02;20.33;;;;;;;12.93;58.16;99374.00;5036211;28;20635;-66
2021/11/28 08:33:09;;;;;;;28.13;19.10;;;;;;;13.12;57.70;99384.91;4999692;28;20043;-65
2021/11/28 08:36:41;;;;;;;26.77;18.88;;;;;;;13.27;57.56;99379.25;5052998;27;20641;-67
2021/11/28 08:39:07;;;;;;;23.80;18.45;;;;;;;13.01;58.09;99348.31;5017968;28;20042;-67
2021/11/28 08:41:33;;;;;;;35.60;20.27;;;;;;;13.70;56.80;99375.38;5016001;28;20046;-66
2021/11/28 08:43:58;;;;;;;25.92;21.20;;;;;;;13.36;57.46;99362.31;5018533;28;20044;-64
2021/11/28 08:46:24;;;;;;;26.58;21.98;;;;;;;13.59;56.14;99319.47;5013194;28;20050;-65
2021/11/28 08:48:53;;;;;;;25.55;21.10;;;;;;;13.33;56.45;99316.75;5021260;28;20050;-68
2021/11/28 08:51:20;;;;;;;27.35;22.27;;;;;;;13.73;56.15;99326.97;5018517;28;20034;-66
2021/11/28 08:53:46;;;;;;;40.53;24.67;;;;;;;13.35;56.79;99326.34;5018032;28;20131;-67
2021/11/28 08:56:12;;;;;;;27.85;21.20;;;;;;;14.10;55.67;99315.28;5013846;28;20150;-67
2021/11/28 08:58:38;;;;;;;42.72;26.75;;;;;;;14.23;55.47;99302.53;5015035;28;20057;-67
2021/11/28 09:01:04;;;;;;;37.15;26.25;;;;;;;13.50;56.52;99283.69;5016711;28;20516;-67
2021/11/28 09:03:29;;;;;;;39.22;23.35;;;;;;;14.10;56.08;99286.25;5019121;28;20462;-67
2021/11/28 09:05:55;;;;;;;31.02;22.58;;;;;;;13.54;56.87;99276.59;5019168;28;20757;-67
2021/11/28 09:08:22;;;;;;;29.30;23.08;;;;;;;12.85;59.26;99275.91;5018810;28;20092;-67
2021/11/28 09:10:48;;;;;;;30.98;25.45;;;;;;;13.50;58.49;99275.78;5009317;28;20460;-68
2021/11/28 09:13:14;;;;;;;33.13;24.98;;;;;;;13.12;58.77;99255.84;5015906;28;20053;-66
2021/11/28 09:16:42;;;;;;;26.77;22.52;;;;;;;14.39;55.86;99237.78;5021350;28;20133;-68
2021/11/28 09:19:14;;;;;;;29.55;22.45;;;;;;;14.97;54.52;99266.56;4987366;28;20057;-65
2021/11/28 09:21:39;;;;;;;39.70;25.67;;;;;;;14.78;54.09;99271.66;4990847;28;20553;-67
2021/11/28 09:24:36;;;;;;;30.67;24.30;;;;;;;15.11;53.92;99266.91;4984210;28;20038;-65
2021/11/28 09:27:06;;;;;;;33.22;25.38;;;;;;;14.81;54.44;99271.53;4989888;28;20573;-68
2021/11/28 09:29:36;;;;;;;30.67;23.60;;;;;;;15.17;54.05;99257.88;4983331;28;20427;-68
2021/11/28 09:32:02;;;;;;;34.58;25.98;;;;;;;14.18;55.54;99215.63;4983206;28;20034;-67
2021/11/28 09:34:28;;;;;;;39.13;25.13;;;;;;;13.63;58.02;99230.63;4984935;28;20050;-67
2021/11/28 09:36:53;;;;;;;29.67;23.95;;;;;;;14.74;55.66;99236.56;4982510;28;20518;-67
2021/11/28 09:39:19;;;;;;;36.45;23.63;;;;;;;15.43;54.01;99242.81;4985876;28;20031;-68
2021/11/28 09:41:49;;;;;;;25.88;22.45;;;;;;;15.08;54.40;99260.91;4983272;28;20081;-69
2021/11/28 09:46:44;;;;;;;29.90;24.67;;;;;;;15.93;52.31;99269.09;5034810;28;20611;-70
2021/11/28 09:49:13;;;;;;;35.67;21.98;;;;;;;15.90;52.74;99285.97;5002947;28;20054;-68
2021/11/28 09:52:43;;;;;;;27.45;24.17;;;;;;;16.00;52.05;99289.09;5037390;28;20634;-68
2021/11/28 09:55:11;;;;;;;30.50;24.73;;;;;;;15.36;53.91;99266.88;5024073;28;20405;-68
2021/11/28 09:57:37;;;;;;;29.10;21.95;;;;;;;16.20;52.39;99275.91;5050718;28;20144;-68
2021/11/28 10:00:05;;;;;;;31.83;22.67;;;;;;;16.50;51.06;99250.84;5025344;28;20140;-67
2021/11/28 10:02:34;;;;;;;26.25;20.92;;;;;;;16.46;50.93;99264.22;5004994;28;20042;-67
2021/11/28 10:05:03;;;;;;;31.27;22.90;;;;;;;17.01;50.35;99274.22;5002258;28;20038;-68
2021/11/28 10:07:29;;;;;;;24.33;21.77;;;;;;;16.51;51.28;99240.19;5003541;28;20041;-67
2021/11/28 10:09:55;;;;;;;35.42;21.33;;;;;;;17.08;49.80;99267.72;5003756;28;20753;-67
2021/11/28 10:12:29;;;;;;;29.48;20.40;;;;;;;17.20;48.98;99268.09;5003805;28;20359;-66
2021/11/28 10:14:58;;;;;;;22.52;16.75;;;;;;;17.38;48.20;99269.03;5002300;28;20077;-66
2021/11/28 10:17:29;;;;;;;19.63;16.08;;;;;;;17.27;49.13;99278.34;5022508;28;20038;-67
2021/11/28 10:19:56;;;;;;;20.77;17.52;;;;;;;17.50;48.56;99249.91;5022675;28;20099;-66
2021/11/28 10:22:22;;;;;;;25.90;18.25;;;;;;;17.53;48.03;99249.75;5020371;28;20053;-68
2021/11/28 10:24:52;;;;;;;25.73;17.85;;;;;;;17.75;48.89;99269.94;5027365;28;20045;-67
2021/11/28 10:27:18;;;;;;;29.67;16.42;;;;;;;17.75;47.25;99240.75;5021954;28;20034;-69
2021/11/28 10:29:44;;;;;;;23.88;16.25;;;;;;;18.22;47.35;99253.53;5021608;28;20565;-69
2021/11/28 10:32:12;;;;;;;22.60;16.40;;;;;;;18.27;45.96;99255.03;5023329;28;20045;-68
2021/11/28 10:34:41;;;;;;;21.85;17.13;;;;;;;17.19;47.63;99208.91;5021558;28;20502;-66
2021/11/28 10:37:11;;;;;;;21.35;16.65;;;;;;;18.25;46.52;99240.09;5023313;28;20067;-68
2021/11/28 10:39:40;;;;;;;22.98;17.23;;;;;;;17.89;46.32;99207.34;5020297;28;20088;-66
2021/11/28 10:42:08;;;;;;;24.08;18.17;;;;;;;17.97;46.31;99206.13;5024084;28;20037;-66
2021/11/28 10:44:34;;;;;;;23.63;16.17;;;;;;;18.66;46.27;99227.38;5023650;28;20061;-67
2021/11/28 10:47:12;;;;;;;25.95;18.45;;;;;;;19.16;44.78;99222.97;5021476;28;20061;-66
2021/11/28 10:49:39;;;;;;;23.73;16.27;;;;;;;19.54;43.17;99204.03;5021072;28;20045;-66
2021/11/28 10:54:44;;;;;;;20.63;16.40;;;;;;;20.24;41.86;99218.63;4968606;28;20640;-65
2021/11/28 10:57:14;;;;;;;18.48;15.85;;;;;;;20.18;42.21;99215.44;4920421;29;20497;-66
2021/11/28 10:59:41;;;;;;;18.08;14.88;;;;;;;18.87;42.56;99189.97;4920789;28;20044;-70
2021/11/28 11:02:20;;;;;;;22.27;14.73;;;;;;;19.96;42.55;99214.03;4917830;29;20052;-67
2021/11/28 11:04:47;;;;;;;22.40;15.10;;;;;;;18.90;42.98;99190.69;4916587;28;20492;-67
2021/11/28 11:07:13;;;;;;;25.40;17.52;;;;;;;19.77;42.06;99197.44;4923873;28;20063;-68
2021/11/28 11:09:44;;;;;;;19.00;16.17;;;;;;;20.01;41.51;99195.13;4919652;28;20039;-68
2021/11/28 11:12:34;;;;;;;22.42;17.38;;;;;;;20.21;41.72;99233.94;4918765;29;20039;-67
2021/11/28 11:15:00;;;;;;;26.48;16.77;;;;;;;19.93;41.82;99218.72;4922405;29;20090;-69
2021/11/28 11:17:31;;;;;;;26.60;15.77;;;;;;;19.67;41.59;99204.19;4918300;28;20143;-68
2021/11/28 11:19:58;;;;;;;24.17;16.38;;;;;;;19.54;42.06;99217.31;4920705;28;20078;-67
2021/11/28 11:22:30;;;;;;;23.40;16.75;;;;;;;19.28;42.79;99210.78;4917481;28;20733;-65
2021/11/28 11:25:18;;;;;;;22.48;17.83;;;;;;;19.67;42.70;99212.19;4915096;29;20063;-66
2021/11/28 11:27:45;;;;;;;47.70;18.10;;;;;;;18.97;42.78;99207.16;4923595;28;20111;-68
2021/11/28 11:30:17;;;;;;;30.52;18.45;;;;;;;18.54;44.05;99212.91;4919999;29;20043;-67
2021/11/28 11:32:44;;;;;;;25.40;18.35;;;;;;;18.57;44.22;99203.94;4917497;28;20095;-68
2021/11/28 11:35:19;;;;;;;22.70;19.15;;;;;;;18.26;44.75;99189.59;4919940;28;20062;-66
2021/11/28 11:37:46;;;;;;;23.45;20.77;;;;;;;18.83;44.31;99218.53;4920626;28;20509;-68
2021/11/28 11:40:14;;;;;;;26.13;17.38;;;;;;;19.28;43.81;99214.31;4924278;28;20044;-67
2021/11/28 11:42:44;;;;;;;20.90;18.17;;;;;;;18.70;44.02;99191.69;4923439;28;20048;-67
2021/11/28 11:47:01;;;;;;;24.83;17.20;;;;;;;19.24;43.26;99220.72;5014845;27;20171;-67
2021/11/28 11:49:27;;;;;;;18.73;16.60;;;;;;;18.07;45.80;99216.19;4982419;28;20047;-69
2021/11/28 11:51:53;;;;;;;21.20;15.82;;;;;;;18.55;44.24;99193.38;4980371;28;20385;-69
2021/11/28 11:54:31;;;;;;;26.05;15.38;;;;;;;18.34;44.87;99200.66;4992838;28;20023;-68
2021/11/28 11:59:10;;;;;;;19.63;14.57;;;;;;;18.11;45.58;99212.44;5029084;28;20596;-68